Time;durP1;ratioP1;P1;durP2;ratioP2;P2;SDS_P1;SDS_P2;PMS_P1;PMS_P2;Temp;Humidity;BMP_temperature;BMP_pressure;BME280_temperature;BME280_humidity;BME280_pressure;Samples;Min_cycle;Max_cycle;Signal;HPM_P1;HPM_P2
2022/04/19 00:01:04;;;;;;;1.17;0.70;;;22.70;99.90;;;;;;5065091;28;20208;-71
2022/04/19 00:03:37;;;;;;;2.55;1.40;;;22.80;99.90;;;;;;5067183;28;20225;-71
2022/04/19 00:06:08;;;;;;;1.05;0.80;;;22.90;99.90;;;;;;5068597;28;20193;-71
2022/04/19 00:08:38;;;;;;;4.28;0.90;;;23.00;99.90;;;;;;5070301;28;20188;-73
2022/04/19 00:11:09;;;;;;;1.58;0.80;;;23.20;99.90;;;;;;5067752;28;20193;-71
2022/04/19 00:13:40;;;;;;;3.28;0.90;;;23.30;99.90;;;;;;5068170;28;20239;-74
2022/04/19 00:16:10;;;;;;;3.10;1.23;;;23.40;99.90;;;;;;5064563;28;20236;-76
2022/04/19 00:18:43;;;;;;;2.55;1.13;;;23.50;99.90;;;;;;5070043;28;20185;-74
2022/04/19 00:21:13;;;;;;;6.78;1.88;;;23.60;99.90;;;;;;5071292;28;20201;-73
2022/04/19 00:23:46;;;;;;;3.03;0.90;;;23.70;99.90;;;;;;5064261;28;20242;-73
2022/04/19 00:26:16;;;;;;;3.65;1.08;;;23.70;99.90;;;;;;5068835;28;20290;-73
2022/04/19 00:28:47;;;;;;;2.72;0.85;;;23.80;99.90;;;;;;5068173;28;20597;-72
2022/04/19 00:31:18;;;;;;;0.95;0.88;;;23.90;99.90;;;;;;5063680;28;20200;-74
2022/04/19 00:33:52;;;;;;;2.17;1.20;;;24.00;99.90;;;;;;5070975;28;20605;-73
2022/04/19 00:36:24;;;;;;;3.80;1.30;;;24.10;99.90;;;;;;5069479;28;20219;-74
2022/04/19 00:38:54;;;;;;;5.68;1.50;;;24.10;99.90;;;;;;5067182;28;20194;-76
2022/04/19 00:41:25;;;;;;;2.35;1.05;;;24.10;99.90;;;;;;5069962;28;20204;-75
2022/04/19 00:43:56;;;;;;;3.05;0.98;;;24.30;99.90;;;;;;5068540;28;20205;-75
2022/04/19 00:46:26;;;;;;;2.17;1.40;;;24.40;99.90;;;;;;5068559;28;20200;-72
2022/04/19 00:48:59;;;;;;;2.25;0.98;;;24.50;99.90;;;;;;5071826;28;20232;-73
2022/04/19 00:51:32;;;;;;;3.78;1.10;;;24.60;99.90;;;;;;5073654;28;20192;-76
2022/04/19 00:54:03;;;;;;;2.55;1.10;;;24.60;99.90;;;;;;5066772;28;20192;-73
2022/04/19 00:56:34;;;;;;;2.17;1.20;;;24.50;99.90;;;;;;5074319;28;20241;-73
2022/04/19 00:59:04;;;;;;;5.38;1.38;;;24.70;99.90;;;;;;5064331;28;20218;-75
2022/04/19 01:01:35;;;;;;;3.83;1.20;;;24.80;99.90;;;;;;5063111;28;20226;-72
2022/04/19 01:04:08;;;;;;;3.30;1.10;;;24.80;99.90;;;;;;5072392;28;20920;-72
2022/04/19 01:06:39;;;;;;;2.50;1.30;;;24.80;99.90;;;;;;5074337;28;20189;-72
2022/04/19 01:09:09;;;;;;;1.85;1.30;;;24.80;99.90;;;;;;5070201;28;20185;-72
2022/04/19 01:14:29;;;;;;;1.20;0.60;;;25.00;99.90;;;;;;5068139;28;20328;-72
2022/04/19 01:17:00;;;;;;;0.68;0.60;;;25.10;99.90;;;;;;5067829;28;20297;-72
2022/04/19 01:19:33;;;;;;;1.55;0.50;;;25.20;99.90;;;;;;5071639;28;20189;-73
2022/04/19 01:22:06;;;;;;;1.00;0.50;;;25.40;99.90;;;;;;5067513;28;20224;-76
2022/04/19 01:24:37;;;;;;;2.13;0.57;;;25.50;99.90;;;;;;5068631;28;20200;-72
2022/04/19 01:27:09;;;;;;;1.40;0.70;;;25.60;99.90;;;;;;5066125;28;20277;-73
2022/04/19 01:29:40;;;;;;;2.10;0.60;;;25.70;99.90;;;;;;5069948;28;20544;-73
2022/04/19 01:32:11;;;;;;;2.03;0.52;;;25.80;99.90;;;;;;5068050;28;20251;-71
2022/04/19 01:34:41;;;;;;;0.75;0.60;;;25.90;99.90;;;;;;5072160;28;20595;-72
2022/04/19 01:37:15;;;;;;;2.70;0.63;;;25.90;99.90;;;;;;5072705;28;20609;-72
2022/04/19 01:42:32;;;;;;;2.53;0.68;;;26.20;99.90;;;;;;5070785;28;20221;-72
2022/04/19 01:45:03;;;;;;;1.02;0.70;;;26.20;99.90;;;;;;5066342;28;20251;-79
2022/04/19 01:47:34;;;;;;;1.98;0.70;;;26.20;99.90;;;;;;5067179;28;20629;-75
2022/04/19 01:50:05;;;;;;;1.13;0.43;;;26.30;99.90;;;;;;5063257;28;20677;-77
2022/04/19 01:52:38;;;;;;;1.23;0.50;;;26.40;99.90;;;;;;5064316;28;20201;-73
2022/04/19 01:55:10;;;;;;;0.93;0.50;;;26.30;99.90;;;;;;5068123;28;20225;-72
2022/04/19 01:57:41;;;;;;;1.48;0.68;;;26.40;99.90;;;;;;5063589;28;20193;-72
2022/04/19 02:00:13;;;;;;;1.83;0.60;;;26.40;99.90;;;;;;5070059;28;20193;-79
2022/04/19 02:02:45;;;;;;;1.75;0.60;;;26.40;99.90;;;;;;5070601;28;20189;-78
2022/04/19 02:05:16;;;;;;;1.48;0.60;;;26.50;99.90;;;;;;5069359;28;20189;-78
2022/04/19 02:07:50;;;;;;;1.73;0.60;;;26.50;99.90;;;;;;5067888;28;20251;-75
2022/04/19 02:10:21;;;;;;;2.35;0.60;;;26.50;99.90;;;;;;5066504;28;20559;-73
2022/04/19 02:12:52;;;;;;;3.00;0.60;;;26.50;99.90;;;;;;5069777;28;20192;-72
2022/04/19 02:15:22;;;;;;;1.77;0.50;;;26.60;99.90;;;;;;5065996;28;20220;-72
2022/04/19 02:17:54;;;;;;;0.70;0.40;;;26.60;99.90;;;;;;5070099;28;20197;-72
2022/04/19 02:20:25;;;;;;;1.20;0.50;;;26.70;99.90;;;;;;5073074;28;20189;-73
2022/04/19 02:22:58;;;;;;;0.32;0.20;;;26.90;99.90;;;;;;5069857;28;20189;-73
2022/04/19 02:25:28;;;;;;;1.25;0.30;;;26.90;99.90;;;;;;5071717;28;20661;-76
2022/04/19 02:27:59;;;;;;;1.95;0.30;;;27.00;99.90;;;;;;5071640;28;20188;-80
2022/04/19 02:30:30;;;;;;;1.40;0.43;;;27.20;99.90;;;;;;5072227;28;20274;-72
2022/04/19 02:33:01;;;;;;;1.13;0.35;;;27.10;99.90;;;;;;5073277;28;20235;-75
2022/04/19 02:35:31;;;;;;;2.13;1.40;;;27.20;99.90;;;;;;5063342;28;20206;-72
2022/04/19 02:38:04;;;;;;;0.80;0.47;;;27.30;99.90;;;;;;5069238;28;20200;-75
2022/04/19 02:40:35;;;;;;;0.47;0.30;;;27.40;99.90;;;;;;5069655;28;20211;-73
2022/04/19 02:43:05;;;;;;;1.75;0.22;;;27.30;99.90;;;;;;5065118;28;20275;-74
2022/04/19 02:45:36;;;;;;;1.95;0.30;;;27.30;99.90;;;;;;5067014;28;20193;-72
2022/04/19 02:48:09;;;;;;;0.65;0.30;;;27.20;99.90;;;;;;5064399;28;20227;-74
2022/04/19 02:50:44;;;;;;;2.42;0.40;;;27.30;99.90;;;;;;5065381;28;20197;-72
2022/04/19 02:53:17;;;;;;;0.90;0.35;;;27.30;99.90;;;;;;5060872;28;20235;-75
2022/04/19 02:55:48;;;;;;;1.35;0.40;;;27.40;99.90;;;;;;5062125;28;20232;-72
2022/04/19 02:58:18;;;;;;;1.17;0.40;;;27.40;99.90;;;;;;5065139;28;20200;-74
2022/04/19 03:00:50;;;;;;;1.85;0.32;;;27.40;99.90;;;;;;5058431;28;20201;-73
2022/04/19 03:03:20;;;;;;;2.05;0.40;;;27.40;99.90;;;;;;5063957;28;20590;-72
2022/04/19 03:05:52;;;;;;;0.90;0.40;;;27.40;99.90;;;;;;5067460;28;20204;-72
2022/04/19 03:08:24;;;;;;;1.60;0.32;;;27.40;99.90;;;;;;5067045;28;20649;-73
2022/04/19 03:10:55;;;;;;;0.55;0.30;;;27.30;99.90;;;;;;5069976;28;20648;-72
2022/04/19 03:13:27;;;;;;;1.13;0.40;;;27.30;99.90;;;;;;5071926;28;20539;-73
2022/04/19 03:15:59;;;;;;;0.40;0.32;;;27.40;99.90;;;;;;5069513;28;20221;-74
2022/04/19 03:18:30;;;;;;;1.00;0.40;;;27.40;99.90;;;;;;5069022;28;20192;-74
2022/04/19 03:21:01;;;;;;;2.33;0.40;;;27.30;99.90;;;;;;5067528;28;20197;-72
2022/04/19 03:29:08;;;;;;;1.00;0.35;;;27.30;99.90;;;;;;5069515;28;20332;-72
2022/04/19 03:31:42;;;;;;;1.02;0.40;;;27.40;99.90;;;;;;5064303;28;20213;-72
2022/04/19 03:34:13;;;;;;;0.90;0.40;;;27.40;99.90;;;;;;5063140;28;20668;-74
2022/04/19 03:36:44;;;;;;;0.20;0.20;;;27.50;99.90;;;;;;5066935;28;20229;-75
2022/04/19 03:39:17;;;;;;;1.23;0.43;;;27.40;99.90;;;;;;5074164;28;20268;-72
2022/04/19 03:41:47;;;;;;;1.73;0.40;;;27.40;99.90;;;;;;5067541;28;20243;-71
2022/04/19 03:44:18;;;;;;;0.50;0.32;;;27.40;99.90;;;;;;5071754;28;20242;-72
2022/04/19 03:49:35;;;;;;;2.15;0.30;;;27.30;99.90;;;;;;5074938;28;20559;-78
2022/04/19 03:52:06;;;;;;;0.93;0.30;;;27.40;99.90;;;;;;5074574;28;20185;-79
2022/04/19 03:54:39;;;;;;;0.77;0.40;;;27.40;99.90;;;;;;5076365;28;20254;-79
2022/04/19 03:57:11;;;;;;;0.85;0.40;;;27.30;99.90;;;;;;5074314;28;20220;-77
2022/04/19 03:59:42;;;;;;;2.65;0.40;;;27.30;99.90;;;;;;5077718;28;20197;-80
2022/04/19 04:02:13;;;;;;;2.92;0.40;;;27.30;99.90;;;;;;5076172;28;20231;-75
2022/04/19 04:04:43;;;;;;;0.30;0.30;;;27.40;99.90;;;;;;5073445;28;20228;-79
2022/04/19 04:07:14;;;;;;;0.22;0.20;;;27.40;99.90;;;;;;5074982;28;20623;-78
2022/04/19 04:09:49;;;;;;;0.60;0.40;;;27.40;99.90;;;;;;5071581;28;20280;-78
2022/04/19 04:12:20;;;;;;;2.83;0.40;;;27.30;99.90;;;;;;5071284;28;20203;-76
2022/04/19 04:14:50;;;;;;;1.33;0.50;;;27.20;99.90;;;;;;5070931;28;20201;-78
2022/04/19 04:17:22;;;;;;;1.00;0.30;;;27.20;99.90;;;;;;5069782;28;20237;-79
2022/04/19 04:19:53;;;;;;;1.20;0.40;;;27.10;99.90;;;;;;5075984;28;20189;-79
2022/04/19 04:22:24;;;;;;;0.60;0.38;;;27.20;99.90;;;;;;5076162;28;20245;-80
2022/04/19 04:24:56;;;;;;;0.85;0.40;;;27.20;99.90;;;;;;5073326;28;20200;-72
2022/04/19 04:27:27;;;;;;;1.70;0.30;;;27.30;99.90;;;;;;5074629;28;20197;-72
2022/04/19 04:29:57;;;;;;;1.33;0.50;;;27.30;99.90;;;;;;5070281;28;20205;-72
2022/04/19 04:32:28;;;;;;;1.55;0.40;;;27.20;99.90;;;;;;5075406;28;20240;-73
2022/04/19 04:34:59;;;;;;;0.68;0.30;;;27.10;99.90;;;;;;5073340;28;20214;-71
2022/04/19 04:37:30;;;;;;;0.88;0.32;;;27.10;99.90;;;;;;5071857;28;20221;-73
2022/04/19 04:40:03;;;;;;;0.98;0.40;;;27.10;99.90;;;;;;5074100;28;20189;-73
2022/04/19 04:42:33;;;;;;;0.60;0.30;;;26.90;99.90;;;;;;5074008;28;20192;-72
2022/04/19 04:45:04;;;;;;;2.40;0.30;;;26.90;99.90;;;;;;5074129;28;20242;-76
2022/04/19 04:50:22;;;;;;;1.95;0.40;;;26.80;99.90;;;;;;5072413;28;20195;-72
2022/04/19 04:52:53;;;;;;;0.43;0.30;;;26.70;99.90;;;;;;5073399;28;20189;-71
2022/04/19 04:55:25;;;;;;;1.33;0.40;;;26.80;99.90;;;;;;5071696;28;20200;-70
2022/04/19 04:57:58;;;;;;;1.20;0.50;;;26.80;99.90;;;;;;5072273;28;20254;-71
2022/04/19 05:00:29;;;;;;;2.05;0.43;;;26.70;99.90;;;;;;5074008;28;20196;-70
2022/04/19 05:03:00;;;;;;;2.75;0.35;;;26.70;99.90;;;;;;5069536;28;20201;-75
2022/04/19 05:05:30;;;;;;;0.70;0.40;;;26.60;99.90;;;;;;5058442;28;20225;-72
2022/04/19 05:08:01;;;;;;;1.13;0.50;;;26.60;99.90;;;;;;5067852;28;20718;-71
2022/04/19 05:10:33;;;;;;;6.65;1.10;;;26.50;99.90;;;;;;5066322;28;20281;-70
2022/04/19 05:13:04;;;;;;;5.35;1.20;;;26.60;99.90;;;;;;5068909;28;20189;-73
2022/04/19 05:15:35;;;;;;;4.38;1.10;;;26.50;99.90;;;;;;5063035;28;20717;-70
2022/04/19 05:18:05;;;;;;;2.58;0.90;;;26.60;99.90;;;;;;5064158;28;20677;-73
2022/04/19 05:20:36;;;;;;;4.38;1.02;;;26.50;99.90;;;;;;5060737;28;20194;-71
2022/04/19 05:23:07;;;;;;;4.40;1.20;;;26.40;99.90;;;;;;5069622;28;20193;-79
2022/04/19 05:25:39;;;;;;;4.82;1.30;;;26.40;99.90;;;;;;5065993;28;20193;-72
2022/04/19 05:28:10;;;;;;;5.13;1.17;;;26.40;99.90;;;;;;5057280;28;20197;-71
2022/04/19 05:30:40;;;;;;;2.80;0.77;;;26.30;99.90;;;;;;5062356;28;20197;-75
2022/04/19 05:33:11;;;;;;;2.10;0.75;;;26.30;99.90;;;;;;5058397;28;20243;-71
2022/04/19 05:35:42;;;;;;;1.85;0.80;;;26.20;99.90;;;;;;5069001;28;20243;-72
2022/04/19 05:38:13;;;;;;;2.00;0.63;;;26.10;99.90;;;;;;5070512;28;20656;-73
2022/04/19 05:40:46;;;;;;;1.80;0.57;;;26.00;99.90;;;;;;5063891;28;20231;-71
2022/04/19 05:43:16;;;;;;;1.70;0.70;;;25.90;99.90;;;;;;5056445;28;20202;-76
2022/04/19 05:45:47;;;;;;;1.27;0.70;;;25.90;99.90;;;;;;5060176;28;20193;-71
2022/04/19 05:48:18;;;;;;;2.58;0.75;;;25.80;99.90;;;;;;5064318;28;20251;-72
2022/04/19 05:50:48;;;;;;;4.68;0.95;;;25.80;99.90;;;;;;5069325;28;20255;-71
2022/04/19 05:53:19;;;;;;;3.97;0.90;;;25.70;99.90;;;;;;5070291;28;20197;-76
2022/04/19 05:55:52;;;;;;;3.90;1.00;;;25.80;99.90;;;;;;5063344;28;20197;-76
2022/04/19 05:58:22;;;;;;;3.38;0.90;;;25.60;99.90;;;;;;5068007;28;20197;-73
2022/04/19 06:00:53;;;;;;;3.35;0.90;;;25.60;99.90;;;;;;5067182;28;20190;-71
2022/04/19 06:06:10;;;;;;;1.95;0.80;;;25.50;99.90;;;;;;5069403;28;20207;-72
2022/04/19 06:08:41;;;;;;;2.72;0.90;;;25.40;99.90;;;;;;5070577;28;20597;-72
2022/04/19 06:11:13;;;;;;;3.25;1.00;;;25.30;99.90;;;;;;5066684;28;20196;-76
2022/04/19 06:13:44;;;;;;;1.48;0.80;;;25.20;99.90;;;;;;5067275;28;20193;-83
2022/04/19 06:16:15;;;;;;;4.78;1.08;;;25.10;99.90;;;;;;5068890;28;20668;-80
2022/04/19 06:18:45;;;;;;;5.10;1.67;;;25.00;99.90;;;;;;5069621;28;20188;-81
2022/04/19 06:21:16;;;;;;;5.30;1.30;;;25.10;99.90;;;;;;5058300;28;20209;-78
2022/04/19 06:23:46;;;;;;;3.88;1.50;;;25.00;99.90;;;;;;5068275;28;20737;-73
2022/04/19 06:26:19;;;;;;;2.70;0.95;;;25.00;99.90;;;;;;5069168;28;20200;-81
2022/04/19 06:28:50;;;;;;;3.40;1.10;;;24.80;99.90;;;;;;5061814;28;20194;-85
2022/04/19 06:31:21;;;;;;;2.45;0.90;;;24.70;99.90;;;;;;5066815;28;20197;-73
2022/04/19 06:33:52;;;;;;;5.75;1.20;;;24.60;99.90;;;;;;5067584;28;20189;-80
2022/04/19 06:36:22;;;;;;;4.53;1.13;;;24.50;99.90;;;;;;5065609;28;20268;-85
2022/04/19 06:38:53;;;;;;;4.30;0.98;;;24.50;99.90;;;;;;5069466;28;20201;-82
2022/04/19 06:41:25;;;;;;;4.57;1.02;;;24.40;99.90;;;;;;5065120;28;20323;-81
2022/04/19 06:43:58;;;;;;;2.58;0.90;;;24.30;99.90;;;;;;5071710;28;20543;-72
2022/04/19 06:46:29;;;;;;;3.75;1.23;;;24.20;99.90;;;;;;5068170;28;20193;-75
2022/04/19 06:48:59;;;;;;;4.10;1.10;;;24.10;99.90;;;;;;5072697;28;20637;-79
2022/04/19 06:51:30;;;;;;;3.95;1.20;;;24.10;99.90;;;;;;5058654;28;20250;-71
2022/04/19 06:54:01;;;;;;;2.88;1.20;;;24.10;99.90;;;;;;5065319;28;20204;-71
2022/04/19 06:56:34;;;;;;;6.22;1.13;;;24.00;99.90;;;;;;5055998;28;20218;-76
2022/04/19 06:59:04;;;;;;;5.68;1.30;;;24.00;99.90;;;;;;5063299;28;20207;-72
2022/04/19 07:01:35;;;;;;;3.53;0.98;;;24.00;99.90;;;;;;5059347;28;20205;-70
2022/04/19 07:04:06;;;;;;;5.93;1.17;;;23.90;99.90;;;;;;5063528;28;20250;-71
2022/04/19 07:06:36;;;;;;;4.18;1.00;;;23.80;99.90;;;;;;5066336;28;20668;-71
2022/04/19 07:09:07;;;;;;;5.82;1.20;;;23.80;99.90;;;;;;5067887;28;20205;-72
2022/04/19 07:11:39;;;;;;;3.28;1.20;;;23.80;99.90;;;;;;5058574;28;20284;-72
2022/04/19 07:14:10;;;;;;;5.97;1.33;;;23.70;99.90;;;;;;5071267;28;20188;-72
2022/04/19 07:16:41;;;;;;;6.72;1.23;;;23.70;99.90;;;;;;5070610;28;20220;-72
2022/04/19 07:19:12;;;;;;;6.35;1.40;;;23.60;99.90;;;;;;5060985;28;20193;-71
2022/04/19 07:27:14;;;;;;;6.38;1.33;;;23.50;99.90;;;;;;5044691;28;20207;-72
2022/04/19 07:29:45;;;;;;;6.75;1.55;;;23.50;99.90;;;;;;5072175;28;20258;-73
2022/04/19 07:32:15;;;;;;;9.23;1.55;;;23.40;99.90;;;;;;5075478;28;20195;-71
2022/04/19 07:34:46;;;;;;;8.18;1.40;;;23.40;99.90;;;;;;5071772;28;20483;-71
2022/04/19 07:37:16;;;;;;;6.90;1.17;;;23.40;99.90;;;;;;5069558;28;20687;-71
2022/04/19 07:39:47;;;;;;;4.70;1.25;;;23.40;99.90;;;;;;5071211;28;20844;-72
2022/04/19 07:42:19;;;;;;;5.53;1.17;;;23.30;99.90;;;;;;5068229;28;20181;-73
2022/04/19 07:44:50;;;;;;;2.13;1.05;;;23.30;99.90;;;;;;5071845;28;20185;-72
2022/04/19 07:47:21;;;;;;;4.90;1.27;;;23.30;99.90;;;;;;5071931;28;20189;-72
2022/04/19 07:49:52;;;;;;;7.97;1.40;;;23.30;99.90;;;;;;5071811;28;20193;-72
2022/04/19 07:52:22;;;;;;;7.05;1.30;;;23.40;99.90;;;;;;5072053;28;20231;-72
2022/04/19 07:54:53;;;;;;;6.75;1.55;;;23.30;99.90;;;;;;5070597;28;20198;-76
2022/04/19 07:57:26;;;;;;;4.07;1.10;;;23.30;99.90;;;;;;5070871;28;20243;-72
2022/04/19 07:59:57;;;;;;;6.55;1.20;;;23.20;99.90;;;;;;5071958;28;20250;-72
2022/04/19 08:02:28;;;;;;;5.35;1.30;;;23.20;99.90;;;;;;5062096;28;20554;-72
2022/04/19 08:04:58;;;;;;;7.68;1.20;;;23.20;99.90;;;;;;5072037;28;20258;-72
2022/04/19 08:07:29;;;;;;;4.18;1.20;;;23.10;99.90;;;;;;5066986;28;20200;-73
2022/04/19 08:10:00;;;;;;;7.93;1.60;;;23.10;99.90;;;;;;5068244;28;20193;-78
2022/04/19 08:12:33;;;;;;;4.75;1.40;;;23.10;99.90;;;;;;5067556;28;20236;-72
2022/04/19 08:15:04;;;;;;;3.67;1.30;;;23.10;99.90;;;;;;5066095;28;20609;-72
2022/04/19 08:17:36;;;;;;;6.72;1.42;;;23.10;99.90;;;;;;5067803;28;20218;-76
2022/04/19 08:20:08;;;;;;;2.40;1.15;;;23.00;99.90;;;;;;5070764;28;20197;-74
2022/04/19 08:22:38;;;;;;;6.82;1.60;;;23.00;99.90;;;;;;5070920;28;20197;-76
2022/04/19 08:25:10;;;;;;;4.38;1.33;;;22.90;99.90;;;;;;5063331;28;21693;-78
2022/04/19 08:27:45;;;;;;;3.22;1.05;;;22.90;99.90;;;;;;5069867;28;20248;-77
2022/04/19 08:30:17;;;;;;;5.63;1.30;;;22.90;99.90;;;;;;5067721;28;20210;-72
2022/04/19 08:32:48;;;;;;;6.07;1.48;;;22.90;99.90;;;;;;5069508;28;20208;-76
2022/04/19 08:35:19;;;;;;;4.43;1.40;;;22.80;99.90;;;;;;5070013;28;20197;-79
2022/04/19 08:37:50;;;;;;;3.13;1.05;;;22.90;99.90;;;;;;5066303;28;20218;-76
2022/04/19 08:40:22;;;;;;;3.17;1.10;;;22.90;99.90;;;;;;5075365;28;20189;-77
2022/04/19 08:42:56;;;;;;;4.30;1.05;;;22.80;99.90;;;;;;5075172;28;20234;-72
2022/04/19 08:45:27;;;;;;;3.58;1.30;;;22.80;99.90;;;;;;5067209;28;20208;-76
2022/04/19 08:48:01;;;;;;;4.97;1.15;;;22.80;99.90;;;;;;5068898;28;20201;-80
2022/04/19 08:50:33;;;;;;;4.63;1.10;;;22.80;99.90;;;;;;5063617;28;20234;-75
2022/04/19 08:58:40;;;;;;;4.78;1.35;;;22.70;99.90;;;;;;5064846;28;20277;-71
2022/04/19 09:01:10;;;;;;;6.03;1.42;;;22.70;99.90;;;;;;5066871;28;20675;-72
2022/04/19 09:03:42;;;;;;;3.65;1.42;;;22.70;99.90;;;;;;5068192;28;20236;-72
2022/04/19 09:06:13;;;;;;;3.22;1.10;;;22.70;99.90;;;;;;5065285;28;20232;-75
2022/04/19 09:08:44;;;;;;;6.72;1.10;;;22.60;99.90;;;;;;5074269;28;20262;-83
2022/04/19 09:11:14;;;;;;;4.38;1.20;;;22.70;99.90;;;;;;5069586;28;20248;-82
2022/04/19 09:14:05;;;;;;;3.35;1.00;;;22.70;99.90;;;;;;5075192;28;20182;-76
2022/04/19 09:16:36;;;;;;;4.47;1.40;;;22.70;99.90;;;;;;5073316;28;20221;-72
2022/04/19 09:19:10;;;;;;;5.25;0.90;;;22.70;99.90;;;;;;5068920;28;20270;-72
2022/04/19 09:21:41;;;;;;;5.60;1.20;;;22.70;99.90;;;;;;5060212;28;20205;-76
2022/04/19 09:24:21;;;;;;;4.55;1.10;;;22.70;99.90;;;;;;5064501;28;20197;-73
2022/04/19 09:26:52;;;;;;;3.13;0.98;;;22.70;99.90;;;;;;5066946;28;20189;-71
2022/04/19 09:29:26;;;;;;;3.80;1.20;;;22.70;99.90;;;;;;5069558;28;20712;-72
2022/04/19 09:32:01;;;;;;;6.70;1.20;;;22.70;99.90;;;;;;5070501;28;20197;-72
2022/04/19 09:34:33;;;;;;;5.40;1.02;;;22.70;99.90;;;;;;5073218;28;20265;-73
2022/04/19 09:37:11;;;;;;;4.32;1.10;;;22.70;99.90;;;;;;5071447;28;20201;-72
2022/04/19 09:39:44;;;;;;;4.30;1.13;;;22.70;99.90;;;;;;5071304;28;20201;-72
2022/04/19 09:42:16;;;;;;;5.05;1.02;;;22.70;99.90;;;;;;5073996;28;20181;-72
2022/04/19 09:44:53;;;;;;;6.50;1.05;;;22.60;99.90;;;;;;5069561;28;20280;-72
2022/04/19 09:47:24;;;;;;;9.05;1.23;;;22.60;99.90;;;;;;5072527;28;20253;-74
2022/04/19 09:49:56;;;;;;;7.43;1.17;;;22.60;99.90;;;;;;5062034;28;20678;-73
2022/04/19 09:52:48;;;;;;;4.60;1.02;;;22.50;99.90;;;;;;5070901;28;20323;-78
2022/04/19 09:55:19;;;;;;;5.78;1.10;;;22.50;99.90;;;;;;5069742;28;20291;-78
2022/04/19 09:57:51;;;;;;;4.85;1.10;;;22.40;99.90;;;;;;5068846;28;20263;-78
2022/04/19 10:00:24;;;;;;;5.22;1.10;;;22.40;99.90;;;;;;5074220;28;20200;-73
2022/04/19 10:08:31;;;;;;;5.38;1.20;;;22.40;99.90;;;;;;5057696;28;20211;-77
2022/04/19 10:11:02;;;;;;;3.00;0.90;;;22.40;99.90;;;;;;5074015;28;20186;-78
2022/04/19 10:13:34;;;;;;;6.72;1.60;;;22.40;99.90;;;;;;5068653;28;20204;-77
2022/04/19 10:16:11;;;;;;;8.45;1.30;;;22.40;99.90;;;;;;5063453;28;20224;-77
2022/04/19 10:18:42;;;;;;;7.90;1.30;;;22.40;99.90;;;;;;5072969;28;20303;-76
2022/04/19 10:21:15;;;;;;;6.30;1.00;;;22.40;99.90;;;;;;5072698;28;20192;-75
2022/04/19 10:23:46;;;;;;;8.38;1.23;;;22.30;99.90;;;;;;5072887;28;20193;-76
2022/04/19 10:26:21;;;;;;;5.90;1.10;;;22.30;99.90;;;;;;5073580;28;20201;-76
2022/04/19 10:28:52;;;;;;;5.28;1.20;;;22.30;99.90;;;;;;5062087;28;20197;-75
2022/04/19 10:31:35;;;;;;;4.43;1.20;;;22.30;99.90;;;;;;5071526;28;20199;-81
2022/04/19 10:34:06;;;;;;;4.75;1.13;;;22.30;99.90;;;;;;5062085;28;20192;-77
2022/04/19 10:36:42;;;;;;;8.25;1.40;;;22.30;99.90;;;;;;5068756;28;20242;-79
2022/04/19 10:39:27;;;;;;;5.57;1.00;;;22.30;99.90;;;;;;5070378;28;20216;-77
2022/04/19 10:41:59;;;;;;;6.35;1.00;;;22.30;99.90;;;;;;5072711;28;20189;-77
2022/04/19 10:44:36;;;;;;;8.38;1.00;;;22.30;99.90;;;;;;5068605;28;20196;-81
2022/04/19 10:47:16;;;;;;;5.00;1.10;;;22.30;99.90;;;;;;5069372;28;20541;-75
2022/04/19 10:50:04;;;;;;;4.28;1.10;;;22.30;99.90;;;;;;5069372;28;20197;-83
2022/04/19 10:52:57;;;;;;;3.35;0.88;;;22.30;99.90;;;;;;5070416;28;20193;-82
2022/04/19 10:55:35;;;;;;;8.38;1.25;;;22.30;99.90;;;;;;5069842;28;20205;-77
2022/04/19 10:58:20;;;;;;;6.70;1.00;;;22.30;99.90;;;;;;5070927;28;20204;-76
2022/04/19 11:00:53;;;;;;;6.43;0.90;;;22.30;99.90;;;;;;5066156;28;20194;-78
2022/04/19 11:03:55;;;;;;;4.80;1.00;;;22.30;99.90;;;;;;5066976;28;20228;-81
2022/04/19 11:06:40;;;;;;;6.30;1.23;;;22.30;99.90;;;;;;5063483;28;20279;-79
2022/04/19 11:09:25;;;;;;;6.13;1.10;;;22.30;99.90;;;;;;5068697;28;20238;-79
2022/04/19 11:11:58;;;;;;;4.22;1.10;;;22.30;99.90;;;;;;5068072;28;20205;-81
2022/04/19 11:14:48;;;;;;;5.28;0.88;;;22.30;99.90;;;;;;5067198;28;20239;-80
2022/04/19 11:17:29;;;;;;;5.60;1.00;;;22.30;99.90;;;;;;5071886;28;20270;-80
2022/04/19 11:20:11;;;;;;;6.30;1.48;;;22.30;99.90;;;;;;5072118;28;20204;-81
2022/04/19 11:22:49;;;;;;;4.45;0.98;;;22.30;99.90;;;;;;5072386;28;20225;-77
2022/04/19 11:25:39;;;;;;;5.10;0.90;;;22.30;99.90;;;;;;5067979;28;20192;-75
2022/04/19 11:28:29;;;;;;;9.07;0.50;;;22.30;99.90;;;;;;5071752;28;20197;-74
2022/04/19 11:31:18;;;;;;;5.32;0.52;;;21.80;99.90;;;;;;5072713;28;20254;-71
2022/04/19 11:33:49;;;;;;;3.72;0.40;;;20.90;99.90;;;;;;5069368;28;20197;-76
2022/04/19 11:36:22;;;;;;;1.38;0.50;;;20.00;99.90;;;;;;5074857;28;20236;-76
2022/04/19 11:38:54;;;;;;;3.03;0.52;;;19.10;99.90;;;;;;5069101;28;20216;-78
2022/04/19 11:47:02;;;;;;;6.85;0.80;;;17.60;99.90;;;;;;5072622;28;20224;-72
2022/04/19 11:49:35;;;;;;;2.72;0.65;;;17.50;99.90;;;;;;5066718;28;20197;-72
2022/04/19 11:52:12;;;;;;;3.78;0.90;;;17.20;99.90;;;;;;5071739;28;20205;-72
2022/04/19 11:54:43;;;;;;;3.72;0.90;;;17.20;99.90;;;;;;5059664;28;20231;-75
2022/04/19 11:57:15;;;;;;;3.72;1.10;;;17.20;99.90;;;;;;5069649;28;20204;-73
2022/04/19 11:59:46;;;;;;;4.53;0.88;;;17.20;99.90;;;;;;5075913;28;20212;-75
2022/04/19 12:02:18;;;;;;;1.80;0.82;;;17.30;99.90;;;;;;5072035;28;20239;-75
2022/04/19 12:04:59;;;;;;;5.03;0.93;;;17.40;99.90;;;;;;5074746;28;20282;-74
2022/04/19 12:07:32;;;;;;;5.03;1.40;;;17.40;99.90;;;;;;5076113;28;20181;-73
2022/04/19 12:10:03;;;;;;;3.00;0.90;;;17.40;99.90;;;;;;5075738;28;20196;-75
2022/04/19 12:12:33;;;;;;;2.05;0.70;;;17.50;99.90;;;;;;5075228;28;20644;-77
2022/04/19 12:15:04;;;;;;;3.75;0.90;;;17.50;99.90;;;;;;5074432;28;20206;-75
2022/04/19 12:17:34;;;;;;;5.28;0.80;;;17.40;99.90;;;;;;5075215;28;20234;-76
2022/04/19 12:20:07;;;;;;;5.00;0.80;;;17.50;99.90;;;;;;5071766;28;20278;-76
2022/04/19 12:22:40;;;;;;;1.52;0.60;;;17.40;99.90;;;;;;5068100;28;20348;-77
2022/04/19 12:25:11;;;;;;;3.13;0.60;;;17.50;99.90;;;;;;5075567;28;20219;-76
2022/04/19 12:27:41;;;;;;;2.88;0.80;;;17.40;99.90;;;;;;5068331;28;20197;-73
2022/04/19 12:30:14;;;;;;;2.72;0.70;;;17.40;99.90;;;;;;5075657;28;20185;-72
2022/04/19 12:32:56;;;;;;;1.88;0.60;;;17.40;99.90;;;;;;5074281;28;20193;-73
2022/04/19 12:35:33;;;;;;;0.77;0.40;;;17.40;99.90;;;;;;5068389;28;20240;-73
2022/04/19 12:38:13;;;;;;;3.67;0.70;;;17.50;99.90;;;;;;5055836;28;20189;-73
2022/04/19 12:40:46;;;;;;;1.27;0.57;;;17.40;99.90;;;;;;5057108;28;20229;-72
2022/04/19 12:43:18;;;;;;;1.83;0.50;;;17.40;99.90;;;;;;5074188;28;20225;-74
2022/04/19 12:45:49;;;;;;;0.80;0.50;;;17.50;99.90;;;;;;5073156;28;20197;-77
2022/04/19 12:48:24;;;;;;;3.33;0.80;;;17.50;99.90;;;;;;5069253;28;20208;-77
2022/04/19 12:51:03;;;;;;;1.15;0.60;;;17.50;99.90;;;;;;5075234;28;20215;-75
2022/04/19 12:53:40;;;;;;;1.83;0.60;;;17.50;99.90;;;;;;5074125;28;20188;-74
2022/04/19 12:56:14;;;;;;;2.03;0.60;;;17.50;99.90;;;;;;5067342;28;20188;-77
2022/04/19 12:58:49;;;;;;;1.75;0.40;;;17.50;99.90;;;;;;5074939;28;20208;-74
2022/04/19 13:01:20;;;;;;;2.75;0.80;;;17.50;99.90;;;;;;5074869;28;20266;-76
2022/04/19 13:03:51;;;;;;;2.30;0.60;;;17.50;99.90;;;;;;5074164;28;20233;-75
2022/04/19 13:14:43;;;;;;;1.55;0.55;;;17.40;99.90;;;;;;5073691;28;20211;-75
2022/04/19 13:17:14;;;;;;;2.35;0.63;;;17.30;99.90;;;;;;5073682;28;20266;-78
2022/04/19 13:19:46;;;;;;;1.00;0.52;;;17.40;99.90;;;;;;5074295;28;20753;-75
2022/04/19 13:22:17;;;;;;;1.10;0.70;;;17.30;99.90;;;;;;5065989;28;20185;-74
2022/04/19 13:24:50;;;;;;;1.27;0.50;;;17.40;99.90;;;;;;5074817;28;20197;-75
2022/04/19 13:27:21;;;;;;;1.38;0.52;;;17.30;99.90;;;;;;5069388;28;20193;-76
2022/04/19 13:29:52;;;;;;;0.50;0.50;;;17.30;99.90;;;;;;5075887;28;20197;-76
2022/04/19 13:32:23;;;;;;;1.15;0.50;;;17.30;99.90;;;;;;5073771;28;20623;-76
2022/04/19 13:34:54;;;;;;;1.65;0.55;;;17.30;99.90;;;;;;5073368;28;20597;-76
2022/04/19 13:40:10;;;;;;;0.70;0.50;;;17.30;99.90;;;;;;5071585;28;20221;-71
2022/04/19 13:42:41;;;;;;;1.77;0.60;;;17.30;99.90;;;;;;5066897;28;20201;-77
2022/04/19 13:45:12;;;;;;;1.55;0.47;;;17.40;99.90;;;;;;5063191;28;20192;-71
2022/04/19 13:47:43;;;;;;;2.63;0.63;;;17.40;99.90;;;;;;5070667;28;20258;-71
2022/04/19 13:50:14;;;;;;;1.75;0.60;;;17.30;99.90;;;;;;5061573;22;20237;-73
2022/04/19 13:52:44;;;;;;;1.52;0.80;;;17.40;99.90;;;;;;5002573;28;20214;-72
2022/04/19 13:55:18;;;;;;;1.67;0.50;;;17.30;99.90;;;;;;5007291;28;20201;-73
2022/04/19 13:57:49;;;;;;;2.63;0.55;;;17.40;99.90;;;;;;5006503;28;20658;-77
2022/04/19 14:00:20;;;;;;;0.75;0.60;;;17.30;99.90;;;;;;5003375;28;20276;-74
2022/04/19 14:02:51;;;;;;;1.25;0.60;;;17.30;99.90;;;;;;4998577;28;20262;-74
2022/04/19 14:05:22;;;;;;;1.15;0.90;;;17.30;99.90;;;;;;5005981;28;20199;-78
2022/04/19 14:07:52;;;;;;;1.55;0.57;;;17.30;99.90;;;;;;5000467;28;20281;-76